TUI47N LEJR-EDDF
Flight info
| Callsign | TUI47N |
|---|---|
| Flight time | 2h 36m |
| Altitude | 36000 |
| Route | HIJ DCT PARKA DCT TLD DCT SIE DCT EDIGO DCT DGO DCT CEGAM L176 LUSEM DCT LULUT DCT ADABI DCT BOKNO DCT DIBES DCT VIQAQ DCT TSU UN858 OQQAL DCT RANUX DCT VALEK DCT LUTAX DCT DIK T856 NIVNU T847 IMCOM IMCOM1A |
| Aircraft | B38M/M-SDE1FGHILORVWXY/HB1 |
Departure
| Time | 2026-05-06 08:24 |
|---|---|
| Airport | Jerez Airport (LEJR) |
Arrival
| Time | 2026-05-06 11:00 |
|---|---|
| Airport | Frankfurt Main Airport (EDDF) |
| Time | Latitude | Longitude | Altitude | Speed | Heading |
|---|---|---|---|---|---|
| 2026-05-06 07:46 | 36.75036 | -6.06276 | 91 ft | 0 kts | 317° |
| 2026-05-06 08:14 | 36.75035 | -6.06276 | 87 ft | 1 kts | 317° |
| 2026-05-06 08:14 | 36.75021 | -6.06260 | 92 ft | 3 kts | 321° |
| 2026-05-06 08:15 | 36.75004 | -6.06245 | 88 ft | 3 kts | 327° |
| 2026-05-06 08:15 | 36.74987 | -6.06232 | 92 ft | 3 kts | 334° |
| 2026-05-06 08:15 | 36.74968 | -6.06222 | 89 ft | 3 kts | 344° |
| 2026-05-06 08:15 | 36.74949 | -6.06219 | 87 ft | 3 kts | 5° |
| 2026-05-06 08:16 | 36.74939 | -6.06221 | 87 ft | 1 kts | 17° |
| 2026-05-06 08:18 | 36.74940 | -6.06220 | 87 ft | 1 kts | 17° |
| 2026-05-06 08:18 | 36.74950 | -6.06213 | 88 ft | 3 kts | 36° |
| 2026-05-06 08:18 | 36.74963 | -6.06183 | 89 ft | 5 kts | 81° |
| 2026-05-06 08:19 | 36.74948 | -6.06118 | 91 ft | 9 kts | 112° |
| 2026-05-06 08:19 | 36.74931 | -6.06066 | 90 ft | 10 kts | 112° |
| 2026-05-06 08:19 | 36.74878 | -6.06030 | 87 ft | 9 kts | 192° |
| 2026-05-06 08:19 | 36.74809 | -6.06062 | 89 ft | 12 kts | 201° |
| 2026-05-06 08:20 | 36.74717 | -6.06106 | 90 ft | 16 kts | 201° |
| 2026-05-06 08:20 | 36.74608 | -6.06158 | 89 ft | 18 kts | 201° |
| 2026-05-06 08:20 | 36.74490 | -6.06217 | 88 ft | 19 kts | 202° |
| 2026-05-06 08:20 | 36.74364 | -6.06281 | 89 ft | 20 kts | 202° |
| 2026-05-06 08:21 | 36.74227 | -6.06348 | 88 ft | 22 kts | 201° |
| 2026-05-06 08:21 | 36.74081 | -6.06418 | 88 ft | 23 kts | 201° |
| 2026-05-06 08:21 | 36.73936 | -6.06488 | 87 ft | 23 kts | 201° |
| 2026-05-06 08:21 | 36.73789 | -6.06561 | 87 ft | 23 kts | 202° |
| 2026-05-06 08:22 | 36.73655 | -6.06627 | 89 ft | 18 kts | 201° |
| 2026-05-06 08:22 | 36.73564 | -6.06644 | 86 ft | 8 kts | 149° |
| 2026-05-06 08:22 | 36.73538 | -6.06572 | 89 ft | 11 kts | 109° |
| 2026-05-06 08:22 | 36.73514 | -6.06492 | 83 ft | 5 kts | 102° |
| 2026-05-06 08:23 | 36.73527 | -6.06472 | 84 ft | 4 kts | 22° |
| 2026-05-06 08:23 | 36.73674 | -6.06398 | 86 ft | 59 kts | 21° |
| 2026-05-06 08:23 | 36.74298 | -6.06092 | 90 ft | 131 kts | 21° |
| 2026-05-06 08:23 | 36.75306 | -6.05584 | 288 ft | 170 kts | 20° |
| 2026-05-06 08:24 | 36.76431 | -6.05034 | 1095 ft | 171 kts | 20° |
| 2026-05-06 08:24 | 36.77548 | -6.04515 | 1827 ft | 182 kts | 21° |
| 2026-05-06 08:24 | 36.78817 | -6.03920 | 2244 ft | 203 kts | 21° |
| 2026-05-06 08:24 | 36.80213 | -6.03263 | 2698 ft | 225 kts | 21° |
| 2026-05-06 08:25 | 36.81728 | -6.02569 | 3168 ft | 242 kts | 19° |
| 2026-05-06 08:25 | 36.83324 | -6.01894 | 4098 ft | 240 kts | 18° |
| 2026-05-06 08:25 | 36.84950 | -6.01205 | 4748 ft | 256 kts | 18° |
| 2026-05-06 08:25 | 36.86684 | -6.00464 | 5448 ft | 267 kts | 18° |
| 2026-05-06 08:26 | 36.88450 | -5.99707 | 6431 ft | 269 kts | 18° |
| 2026-05-06 08:26 | 36.90238 | -5.98939 | 7241 ft | 274 kts | 18° |
| 2026-05-06 08:26 | 36.92057 | -5.98156 | 8053 ft | 279 kts | 18° |
| 2026-05-06 08:26 | 36.93909 | -5.97362 | 8862 ft | 283 kts | 18° |
| 2026-05-06 08:27 | 36.95788 | -5.96553 | 9680 ft | 289 kts | 18° |
| 2026-05-06 08:27 | 36.97712 | -5.95726 | 10345 ft | 297 kts | 18° |
| 2026-05-06 08:27 | 36.99728 | -5.94859 | 10683 ft | 317 kts | 18° |
| 2026-05-06 08:27 | 37.01848 | -5.93946 | 11089 ft | 332 kts | 18° |
| 2026-05-06 08:28 | 37.04071 | -5.92989 | 11641 ft | 341 kts | 17° |
| 2026-05-06 08:28 | 37.06322 | -5.92019 | 12423 ft | 344 kts | 17° |
| 2026-05-06 08:28 | 37.08602 | -5.91035 | 13151 ft | 348 kts | 17° |
| 2026-05-06 08:28 | 37.10904 | -5.90041 | 13875 ft | 352 kts | 17° |
| 2026-05-06 08:29 | 37.13237 | -5.89033 | 14524 ft | 356 kts | 17° |
| 2026-05-06 08:29 | 37.15600 | -5.88012 | 15163 ft | 360 kts | 17° |
| 2026-05-06 08:29 | 37.17991 | -5.86978 | 15810 ft | 365 kts | 17° |
| 2026-05-06 08:29 | 37.20409 | -5.85931 | 16431 ft | 369 kts | 17° |
| 2026-05-06 08:30 | 37.22848 | -5.84873 | 17020 ft | 373 kts | 16° |
| 2026-05-06 08:30 | 37.25318 | -5.83803 | 17618 ft | 377 kts | 16° |
| 2026-05-06 08:30 | 37.27811 | -5.82722 | 18199 ft | 381 kts | 16° |
| 2026-05-06 08:30 | 37.30331 | -5.81628 | 18704 ft | 385 kts | 16° |
| 2026-05-06 08:31 | 37.32878 | -5.80523 | 19209 ft | 388 kts | 16° |
| 2026-05-06 08:31 | 37.35410 | -5.79422 | 19708 ft | 391 kts | 16° |
| 2026-05-06 08:31 | 37.37994 | -5.78298 | 20196 ft | 395 kts | 16° |
| 2026-05-06 08:31 | 37.40602 | -5.77163 | 20688 ft | 398 kts | 16° |
| 2026-05-06 08:32 | 37.43203 | -5.75929 | 21165 ft | 404 kts | 23° |
| 2026-05-06 08:32 | 37.45720 | -5.74320 | 21660 ft | 406 kts | 23° |
| 2026-05-06 08:32 | 37.48276 | -5.72737 | 22121 ft | 410 kts | 22° |
| 2026-05-06 08:32 | 37.50854 | -5.71163 | 22592 ft | 413 kts | 22° |
| 2026-05-06 08:33 | 37.53452 | -5.69589 | 23062 ft | 416 kts | 22° |
| 2026-05-06 08:33 | 37.56074 | -5.68004 | 23532 ft | 420 kts | 22° |
| 2026-05-06 08:33 | 37.58718 | -5.66406 | 23911 ft | 423 kts | 22° |
| 2026-05-06 08:33 | 37.61385 | -5.64794 | 24297 ft | 426 kts | 22° |
| 2026-05-06 08:34 | 37.64075 | -5.63166 | 24678 ft | 430 kts | 21° |
| 2026-05-06 08:34 | 37.69468 | -5.59899 | 25429 ft | 436 kts | 21° |
| 2026-05-06 08:34 | 37.72217 | -5.58232 | 25805 ft | 439 kts | 21° |
| 2026-05-06 08:35 | 37.74981 | -5.56555 | 26167 ft | 442 kts | 21° |
| 2026-05-06 08:35 | 37.77764 | -5.54864 | 26494 ft | 445 kts | 21° |
| 2026-05-06 08:35 | 37.80566 | -5.53161 | 26874 ft | 448 kts | 21° |
| 2026-05-06 08:35 | 37.83369 | -5.51455 | 27220 ft | 451 kts | 21° |
| 2026-05-06 08:36 | 37.85995 | -5.49856 | 27555 ft | 454 kts | 21° |
| 2026-05-06 08:36 | 37.88883 | -5.48096 | 27888 ft | 457 kts | 21° |
| 2026-05-06 08:36 | 37.91755 | -5.46344 | 28225 ft | 460 kts | 21° |
| 2026-05-06 08:36 | 37.94612 | -5.44600 | 28541 ft | 462 kts | 21° |
| 2026-05-06 08:37 | 37.97518 | -5.42823 | 28880 ft | 465 kts | 21° |
| 2026-05-06 08:37 | 38.00443 | -5.41034 | 29176 ft | 468 kts | 21° |
| 2026-05-06 08:37 | 38.03383 | -5.39235 | 29490 ft | 470 kts | 21° |
| 2026-05-06 08:37 | 38.06340 | -5.37423 | 29790 ft | 473 kts | 21° |
| 2026-05-06 08:38 | 38.09314 | -5.35599 | 30085 ft | 476 kts | 21° |
| 2026-05-06 08:38 | 38.12305 | -5.33763 | 30348 ft | 478 kts | 20° |
| 2026-05-06 08:38 | 38.15304 | -5.31920 | 30606 ft | 480 kts | 20° |
| 2026-05-06 08:38 | 38.18323 | -5.30063 | 30866 ft | 482 kts | 20° |
| 2026-05-06 08:39 | 38.21347 | -5.28202 | 31134 ft | 484 kts | 20° |
| 2026-05-06 08:39 | 38.24392 | -5.26326 | 31384 ft | 486 kts | 20° |
| 2026-05-06 08:39 | 38.27435 | -5.24450 | 31612 ft | 488 kts | 20° |
| 2026-05-06 08:39 | 38.30496 | -5.22560 | 31867 ft | 490 kts | 20° |
| 2026-05-06 08:40 | 38.33578 | -5.20656 | 32112 ft | 492 kts | 20° |
| 2026-05-06 08:40 | 38.36620 | -5.18775 | 32362 ft | 494 kts | 20° |
| 2026-05-06 08:40 | 38.39722 | -5.16854 | 32613 ft | 495 kts | 20° |
| 2026-05-06 08:40 | 38.42820 | -5.14935 | 32944 ft | 495 kts | 20° |
| 2026-05-06 08:41 | 38.45920 | -5.13013 | 33288 ft | 494 kts | 20° |
| 2026-05-06 08:41 | 38.49012 | -5.11094 | 33619 ft | 494 kts | 20° |
| 2026-05-06 08:41 | 38.52145 | -5.09354 | 33943 ft | 489 kts | 15° |
| 2026-05-06 08:41 | 38.55301 | -5.07733 | 34222 ft | 489 kts | 16° |
| 2026-05-06 08:42 | 38.58468 | -5.06076 | 34493 ft | 489 kts | 17° |
| 2026-05-06 08:42 | 38.61606 | -5.04417 | 34782 ft | 488 kts | 17° |
| 2026-05-06 08:42 | 38.64711 | -5.02771 | 35062 ft | 488 kts | 17° |
| 2026-05-06 08:42 | 38.67842 | -5.01109 | 35339 ft | 487 kts | 17° |
| 2026-05-06 08:43 | 38.71007 | -4.99428 | 35607 ft | 486 kts | 17° |
| 2026-05-06 08:43 | 38.74095 | -4.97786 | 35842 ft | 486 kts | 17° |
| 2026-05-06 08:43 | 38.77216 | -4.96124 | 35991 ft | 487 kts | 17° |
| 2026-05-06 08:44 | 38.83465 | -4.92793 | 35974 ft | 484 kts | 17° |
| 2026-05-06 08:44 | 38.89683 | -4.89472 | 35974 ft | 484 kts | 17° |
| 2026-05-06 08:45 | 38.95905 | -4.86142 | 35973 ft | 483 kts | 17° |
| 2026-05-06 08:45 | 39.02111 | -4.82814 | 35973 ft | 483 kts | 17° |
| 2026-05-06 08:46 | 39.08274 | -4.79503 | 35977 ft | 483 kts | 17° |
| 2026-05-06 08:46 | 39.14475 | -4.76166 | 35972 ft | 482 kts | 17° |
| 2026-05-06 08:47 | 39.20664 | -4.72829 | 35974 ft | 482 kts | 17° |
| 2026-05-06 08:47 | 39.26847 | -4.69489 | 35976 ft | 482 kts | 17° |
| 2026-05-06 08:48 | 39.33028 | -4.66143 | 35973 ft | 482 kts | 17° |
| 2026-05-06 08:48 | 39.39217 | -4.62786 | 35973 ft | 481 kts | 18° |
| 2026-05-06 08:49 | 39.45387 | -4.59433 | 35976 ft | 480 kts | 18° |
| 2026-05-06 08:49 | 39.51550 | -4.56077 | 35976 ft | 480 kts | 18° |
| 2026-05-06 08:50 | 39.57697 | -4.52724 | 35988 ft | 479 kts | 18° |
| 2026-05-06 08:50 | 39.63798 | -4.49390 | 35979 ft | 479 kts | 18° |
| 2026-05-06 08:51 | 39.69940 | -4.46027 | 35986 ft | 478 kts | 18° |
| 2026-05-06 08:51 | 39.76076 | -4.42660 | 35982 ft | 478 kts | 18° |
| 2026-05-06 08:52 | 39.82202 | -4.39292 | 35988 ft | 478 kts | 18° |
| 2026-05-06 08:52 | 39.88298 | -4.35935 | 35990 ft | 478 kts | 18° |
| 2026-05-06 08:53 | 39.94417 | -4.32558 | 35977 ft | 477 kts | 18° |
| 2026-05-06 08:53 | 40.00531 | -4.29177 | 35987 ft | 477 kts | 18° |
| 2026-05-06 08:54 | 40.06638 | -4.25794 | 35989 ft | 477 kts | 18° |
| 2026-05-06 08:54 | 40.12743 | -4.22404 | 35991 ft | 477 kts | 18° |
| 2026-05-06 08:55 | 40.18855 | -4.19005 | 35996 ft | 476 kts | 18° |
| 2026-05-06 08:55 | 40.24951 | -4.15608 | 36001 ft | 476 kts | 18° |
| 2026-05-06 08:56 | 40.31005 | -4.12228 | 36004 ft | 476 kts | 18° |
| 2026-05-06 08:56 | 40.37096 | -4.08819 | 36006 ft | 476 kts | 18° |
| 2026-05-06 08:57 | 40.43187 | -4.05405 | 36009 ft | 475 kts | 18° |
| 2026-05-06 08:57 | 40.49263 | -4.01992 | 36005 ft | 475 kts | 18° |
| 2026-05-06 08:58 | 40.55344 | -3.98570 | 36016 ft | 475 kts | 18° |
| 2026-05-06 08:58 | 40.61406 | -3.95151 | 36018 ft | 474 kts | 19° |
| 2026-05-06 08:59 | 40.67480 | -3.91720 | 36021 ft | 474 kts | 19° |
| 2026-05-06 08:59 | 40.73510 | -3.88306 | 36022 ft | 474 kts | 19° |
| 2026-05-06 09:00 | 40.79562 | -3.84872 | 36017 ft | 474 kts | 19° |
| 2026-05-06 09:00 | 40.85630 | -3.81423 | 36009 ft | 474 kts | 19° |
| 2026-05-06 09:01 | 40.91686 | -3.77974 | 36022 ft | 473 kts | 19° |
| 2026-05-06 09:01 | 40.97730 | -3.74524 | 36025 ft | 473 kts | 19° |
| 2026-05-06 09:02 | 41.03759 | -3.71077 | 35999 ft | 472 kts | 19° |
| 2026-05-06 09:02 | 41.09788 | -3.67622 | 36017 ft | 471 kts | 19° |
| 2026-05-06 09:03 | 41.15807 | -3.64166 | 36013 ft | 471 kts | 19° |
| 2026-05-06 09:03 | 41.21797 | -3.60721 | 36013 ft | 471 kts | 19° |
| 2026-05-06 09:04 | 41.27814 | -3.57253 | 36018 ft | 471 kts | 19° |
| 2026-05-06 09:04 | 41.33827 | -3.53780 | 36020 ft | 471 kts | 19° |
| 2026-05-06 09:05 | 41.39833 | -3.50303 | 36020 ft | 471 kts | 19° |
| 2026-05-06 09:05 | 41.45840 | -3.46819 | 36025 ft | 470 kts | 19° |
| 2026-05-06 09:06 | 41.51846 | -3.43329 | 36023 ft | 470 kts | 19° |
| 2026-05-06 09:06 | 41.57803 | -3.39860 | 36023 ft | 470 kts | 19° |
| 2026-05-06 09:07 | 41.63796 | -3.36363 | 36026 ft | 470 kts | 19° |
| 2026-05-06 09:07 | 41.68773 | -3.33454 | 36022 ft | 469 kts | 19° |
| 2026-05-06 09:08 | 41.75774 | -3.29353 | 36023 ft | 469 kts | 19° |
| 2026-05-06 09:08 | 41.80749 | -3.26433 | 36022 ft | 469 kts | 19° |
| 2026-05-06 09:09 | 41.86736 | -3.22912 | 36018 ft | 470 kts | 19° |
| 2026-05-06 09:09 | 41.92718 | -3.19387 | 36022 ft | 469 kts | 19° |
| 2026-05-06 09:10 | 41.98701 | -3.15854 | 36021 ft | 470 kts | 19° |
| 2026-05-06 09:10 | 42.04651 | -3.12334 | 36022 ft | 470 kts | 19° |
| 2026-05-06 09:11 | 42.10631 | -3.08789 | 36022 ft | 470 kts | 20° |
| 2026-05-06 09:11 | 42.16616 | -3.05235 | 36015 ft | 470 kts | 20° |
| 2026-05-06 09:12 | 42.22608 | -3.01669 | 36030 ft | 471 kts | 20° |
| 2026-05-06 09:12 | 42.28595 | -2.98099 | 36018 ft | 470 kts | 20° |
| 2026-05-06 09:13 | 42.34580 | -2.94522 | 36026 ft | 471 kts | 20° |
| 2026-05-06 09:13 | 42.40531 | -2.90958 | 36017 ft | 470 kts | 20° |
| 2026-05-06 09:14 | 42.46279 | -2.86775 | 36009 ft | 474 kts | 38° |
| 2026-05-06 09:14 | 42.51267 | -2.80877 | 36022 ft | 477 kts | 38° |
| 2026-05-06 09:15 | 42.56242 | -2.74937 | 36026 ft | 477 kts | 39° |
| 2026-05-06 09:15 | 42.61195 | -2.68959 | 36025 ft | 477 kts | 39° |
| 2026-05-06 09:16 | 42.66154 | -2.62957 | 36022 ft | 476 kts | 39° |
| 2026-05-06 09:16 | 42.71096 | -2.56963 | 36025 ft | 476 kts | 39° |
| 2026-05-06 09:17 | 42.76004 | -2.50997 | 36022 ft | 475 kts | 39° |
| 2026-05-06 09:17 | 42.80932 | -2.44993 | 36023 ft | 475 kts | 39° |
| 2026-05-06 09:18 | 42.85855 | -2.38982 | 36025 ft | 474 kts | 39° |
| 2026-05-06 09:18 | 42.90761 | -2.32977 | 36027 ft | 474 kts | 39° |
| 2026-05-06 09:19 | 42.95666 | -2.26962 | 36014 ft | 473 kts | 39° |
| 2026-05-06 09:19 | 43.00551 | -2.20951 | 36036 ft | 472 kts | 39° |
| 2026-05-06 09:20 | 43.05429 | -2.14932 | 36019 ft | 472 kts | 39° |
| 2026-05-06 09:20 | 43.10301 | -2.08909 | 36018 ft | 472 kts | 39° |
| 2026-05-06 09:21 | 43.15169 | -2.02882 | 36023 ft | 472 kts | 40° |
| 2026-05-06 09:21 | 43.20039 | -1.96839 | 36025 ft | 472 kts | 40° |
| 2026-05-06 09:22 | 43.24910 | -1.90782 | 36032 ft | 472 kts | 40° |
| 2026-05-06 09:22 | 43.29765 | -1.84731 | 36017 ft | 472 kts | 39° |
| 2026-05-06 09:22 | 43.32353 | -1.82086 | 36016 ft | 466 kts | 26° |
| 2026-05-06 09:23 | 43.35179 | -1.79910 | 36015 ft | 467 kts | 27° |
| 2026-05-06 09:23 | 43.40660 | -1.75067 | 36018 ft | 469 kts | 31° |
| 2026-05-06 09:24 | 43.46101 | -1.70125 | 36027 ft | 469 kts | 31° |
| 2026-05-06 09:24 | 43.51555 | -1.65201 | 35996 ft | 468 kts | 31° |
| 2026-05-06 09:25 | 43.57000 | -1.60276 | 35990 ft | 468 kts | 31° |
| 2026-05-06 09:25 | 43.62445 | -1.55341 | 35995 ft | 468 kts | 31° |
| 2026-05-06 09:26 | 43.67883 | -1.50401 | 35994 ft | 468 kts | 31° |
| 2026-05-06 09:26 | 43.73292 | -1.45477 | 35985 ft | 468 kts | 31° |
| 2026-05-06 09:27 | 43.78732 | -1.40514 | 35975 ft | 468 kts | 31° |
| 2026-05-06 09:27 | 43.84171 | -1.35541 | 35974 ft | 468 kts | 31° |
| 2026-05-06 09:28 | 43.89603 | -1.30563 | 35968 ft | 468 kts | 31° |
| 2026-05-06 09:28 | 43.95040 | -1.25570 | 35977 ft | 468 kts | 31° |
| 2026-05-06 09:29 | 44.00467 | -1.20574 | 35953 ft | 468 kts | 31° |
| 2026-05-06 09:29 | 44.05852 | -1.15606 | 35960 ft | 468 kts | 31° |
| 2026-05-06 09:30 | 44.11269 | -1.10597 | 35948 ft | 467 kts | 31° |
| 2026-05-06 09:30 | 44.16678 | -1.05586 | 35948 ft | 467 kts | 31° |
| 2026-05-06 09:31 | 44.22094 | -1.00556 | 35943 ft | 467 kts | 31° |
| 2026-05-06 09:31 | 44.27504 | -0.95520 | 35938 ft | 467 kts | 31° |
| 2026-05-06 09:32 | 44.32918 | -0.90470 | 35926 ft | 467 kts | 32° |
| 2026-05-06 09:32 | 44.38314 | -0.85427 | 35941 ft | 467 kts | 32° |
| 2026-05-06 09:32 | 44.41082 | -0.83205 | 35925 ft | 463 kts | 20° |
| 2026-05-06 09:33 | 44.44051 | -0.81452 | 35938 ft | 463 kts | 21° |
| 2026-05-06 09:33 | 44.49957 | -0.77827 | 35936 ft | 463 kts | 21° |
| 2026-05-06 09:34 | 44.55874 | -0.74211 | 35927 ft | 463 kts | 21° |
| 2026-05-06 09:34 | 44.61790 | -0.70588 | 35946 ft | 464 kts | 21° |
| 2026-05-06 09:35 | 44.67685 | -0.66973 | 35919 ft | 462 kts | 21° |
| 2026-05-06 09:35 | 44.73592 | -0.63341 | 35870 ft | 462 kts | 22° |
| 2026-05-06 09:36 | 44.79442 | -0.59736 | 35921 ft | 463 kts | 22° |
| 2026-05-06 09:36 | 44.85342 | -0.56093 | 35918 ft | 462 kts | 22° |
| 2026-05-06 09:37 | 44.91230 | -0.52448 | 35885 ft | 461 kts | 22° |
| 2026-05-06 09:37 | 44.97113 | -0.48797 | 35906 ft | 462 kts | 22° |
| 2026-05-06 09:38 | 45.02990 | -0.45143 | 35914 ft | 461 kts | 22° |
| 2026-05-06 09:38 | 45.08829 | -0.41504 | 35902 ft | 461 kts | 22° |
| 2026-05-06 09:39 | 45.14697 | -0.37839 | 35898 ft | 460 kts | 22° |
| 2026-05-06 09:39 | 45.20554 | -0.34173 | 35897 ft | 460 kts | 22° |
| 2026-05-06 09:40 | 45.26406 | -0.30501 | 35898 ft | 459 kts | 22° |
| 2026-05-06 09:40 | 45.35174 | -0.24984 | 35895 ft | 459 kts | 22° |
| 2026-05-06 09:41 | 45.41013 | -0.21300 | 35889 ft | 459 kts | 23° |
| 2026-05-06 09:41 | 45.46810 | -0.17634 | 35898 ft | 458 kts | 23° |
| 2026-05-06 09:42 | 45.52636 | -0.13942 | 35909 ft | 458 kts | 23° |
| 2026-05-06 09:42 | 45.58456 | -0.10244 | 35903 ft | 457 kts | 23° |
| 2026-05-06 09:43 | 45.64265 | -0.06545 | 35904 ft | 457 kts | 23° |
| 2026-05-06 09:43 | 45.70075 | -0.02837 | 35904 ft | 457 kts | 23° |
| 2026-05-06 09:44 | 45.75880 | 0.00876 | 35909 ft | 457 kts | 23° |
| 2026-05-06 09:44 | 45.81679 | 0.04594 | 35904 ft | 457 kts | 23° |
| 2026-05-06 09:45 | 45.87447 | 0.08300 | 35902 ft | 457 kts | 23° |
| 2026-05-06 09:45 | 45.93249 | 0.12037 | 35898 ft | 457 kts | 23° |
| 2026-05-06 09:46 | 45.99050 | 0.15781 | 35892 ft | 456 kts | 23° |
| 2026-05-06 09:46 | 46.04839 | 0.19526 | 35888 ft | 456 kts | 23° |
| 2026-05-06 09:47 | 46.10625 | 0.23279 | 35882 ft | 456 kts | 23° |
| 2026-05-06 09:47 | 46.16413 | 0.27042 | 35879 ft | 456 kts | 23° |
| 2026-05-06 09:48 | 46.22188 | 0.30804 | 35880 ft | 455 kts | 23° |
| 2026-05-06 09:48 | 46.27927 | 0.34552 | 35884 ft | 455 kts | 24° |
| 2026-05-06 09:49 | 46.33699 | 0.38330 | 35893 ft | 454 kts | 24° |
| 2026-05-06 09:49 | 46.39458 | 0.42107 | 35899 ft | 454 kts | 24° |
| 2026-05-06 09:50 | 46.45212 | 0.45888 | 35902 ft | 454 kts | 24° |
| 2026-05-06 09:50 | 46.50932 | 0.49657 | 35906 ft | 453 kts | 24° |
| 2026-05-06 09:51 | 46.56732 | 0.53257 | 35890 ft | 452 kts | 13° |
| 2026-05-06 09:51 | 46.62863 | 0.55287 | 35901 ft | 452 kts | 12° |
| 2026-05-06 09:52 | 46.69004 | 0.57321 | 35902 ft | 452 kts | 12° |
| 2026-05-06 09:52 | 46.75148 | 0.59350 | 35896 ft | 452 kts | 12° |
| 2026-05-06 09:53 | 46.81290 | 0.61382 | 35898 ft | 453 kts | 12° |
| 2026-05-06 09:53 | 46.87434 | 0.63418 | 35895 ft | 453 kts | 12° |
| 2026-05-06 09:54 | 46.93587 | 0.65464 | 35892 ft | 453 kts | 12° |
| 2026-05-06 09:54 | 46.99734 | 0.67511 | 35905 ft | 454 kts | 12° |
| 2026-05-06 09:55 | 47.05706 | 0.70221 | 35883 ft | 452 kts | 30° |
| 2026-05-06 09:55 | 47.11141 | 0.74951 | 35905 ft | 454 kts | 30° |
| 2026-05-06 09:56 | 47.15645 | 0.78917 | 35908 ft | 454 kts | 31° |
| 2026-05-06 09:56 | 47.21936 | 0.84530 | 35906 ft | 454 kts | 31° |
| 2026-05-06 09:57 | 47.26423 | 0.88548 | 35911 ft | 453 kts | 31° |
| 2026-05-06 09:57 | 47.31805 | 0.93378 | 35910 ft | 453 kts | 31° |
| 2026-05-06 09:58 | 47.37191 | 0.98223 | 35913 ft | 453 kts | 31° |
| 2026-05-06 09:58 | 47.42576 | 1.03079 | 35914 ft | 453 kts | 31° |
| 2026-05-06 09:59 | 47.47962 | 1.07947 | 35908 ft | 454 kts | 31° |
| 2026-05-06 09:59 | 47.53484 | 1.12484 | 35915 ft | 454 kts | 27° |
| 2026-05-06 10:00 | 47.59080 | 1.16822 | 35909 ft | 454 kts | 27° |
| 2026-05-06 10:00 | 47.64660 | 1.21200 | 35903 ft | 454 kts | 28° |
| 2026-05-06 10:01 | 47.70237 | 1.25590 | 35909 ft | 454 kts | 28° |
| 2026-05-06 10:01 | 47.75787 | 1.29969 | 35902 ft | 454 kts | 28° |
| 2026-05-06 10:02 | 47.81373 | 1.34389 | 35906 ft | 454 kts | 28° |
| 2026-05-06 10:02 | 47.86949 | 1.38811 | 35894 ft | 455 kts | 28° |
| 2026-05-06 10:03 | 47.92534 | 1.43251 | 35908 ft | 455 kts | 28° |
| 2026-05-06 10:03 | 47.98131 | 1.47711 | 35885 ft | 455 kts | 28° |
| 2026-05-06 10:04 | 48.03718 | 1.52174 | 35884 ft | 456 kts | 28° |
| 2026-05-06 10:04 | 48.09278 | 1.56627 | 35892 ft | 456 kts | 28° |
| 2026-05-06 10:05 | 48.14885 | 1.61120 | 35895 ft | 456 kts | 28° |
| 2026-05-06 10:05 | 48.20484 | 1.65610 | 35897 ft | 456 kts | 28° |
| 2026-05-06 10:06 | 48.26089 | 1.70118 | 35907 ft | 456 kts | 28° |
| 2026-05-06 10:06 | 48.31646 | 1.74597 | 35907 ft | 456 kts | 28° |
| 2026-05-06 10:07 | 48.37241 | 1.79118 | 35911 ft | 457 kts | 28° |
| 2026-05-06 10:07 | 48.42839 | 1.83653 | 35905 ft | 456 kts | 28° |
| 2026-05-06 10:08 | 48.48430 | 1.88194 | 35910 ft | 457 kts | 28° |
| 2026-05-06 10:08 | 48.54036 | 1.92758 | 35908 ft | 457 kts | 29° |
| 2026-05-06 10:09 | 48.59637 | 1.97329 | 35912 ft | 458 kts | 29° |
| 2026-05-06 10:09 | 48.65251 | 2.01923 | 35912 ft | 458 kts | 29° |
| 2026-05-06 10:10 | 48.70852 | 2.06537 | 35909 ft | 459 kts | 32° |
| 2026-05-06 10:10 | 48.73333 | 2.09427 | 35897 ft | 455 kts | 47° |
| 2026-05-06 10:10 | 48.75248 | 2.13221 | 35908 ft | 453 kts | 63° |
| 2026-05-06 10:11 | 48.77416 | 2.22188 | 35908 ft | 455 kts | 74° |
| 2026-05-06 10:11 | 48.79178 | 2.31428 | 35912 ft | 456 kts | 75° |
| 2026-05-06 10:12 | 48.80857 | 2.40704 | 35909 ft | 456 kts | 76° |
| 2026-05-06 10:12 | 48.82504 | 2.49938 | 35911 ft | 457 kts | 76° |
| 2026-05-06 10:13 | 48.84154 | 2.59251 | 35905 ft | 457 kts | 76° |
| 2026-05-06 10:13 | 48.85802 | 2.68597 | 35913 ft | 458 kts | 76° |
| 2026-05-06 10:14 | 48.87443 | 2.77961 | 35890 ft | 458 kts | 76° |
| 2026-05-06 10:14 | 48.89069 | 2.87285 | 35896 ft | 459 kts | 76° |
| 2026-05-06 10:15 | 48.90700 | 2.96691 | 35893 ft | 460 kts | 77° |
| 2026-05-06 10:15 | 48.92321 | 3.06085 | 35879 ft | 459 kts | 77° |
| 2026-05-06 10:16 | 48.93931 | 3.15460 | 35854 ft | 458 kts | 77° |
| 2026-05-06 10:16 | 48.95535 | 3.24856 | 35869 ft | 459 kts | 77° |
| 2026-05-06 10:17 | 48.97131 | 3.34257 | 35865 ft | 459 kts | 77° |
| 2026-05-06 10:17 | 48.98719 | 3.43667 | 35864 ft | 459 kts | 77° |
| 2026-05-06 10:18 | 49.00302 | 3.53091 | 35859 ft | 459 kts | 77° |
| 2026-05-06 10:18 | 49.01876 | 3.62511 | 35864 ft | 459 kts | 77° |
| 2026-05-06 10:19 | 49.03443 | 3.71945 | 35857 ft | 459 kts | 77° |
| 2026-05-06 10:19 | 49.04990 | 3.81311 | 35857 ft | 458 kts | 78° |
| 2026-05-06 10:20 | 49.06537 | 3.90730 | 35853 ft | 458 kts | 78° |
| 2026-05-06 10:20 | 49.08079 | 4.00169 | 35855 ft | 458 kts | 78° |
| 2026-05-06 10:21 | 49.09612 | 4.09607 | 35860 ft | 458 kts | 78° |
| 2026-05-06 10:21 | 49.11136 | 4.19043 | 35849 ft | 458 kts | 78° |
| 2026-05-06 10:22 | 49.12657 | 4.28493 | 35853 ft | 458 kts | 78° |
| 2026-05-06 10:22 | 49.14326 | 4.37803 | 35845 ft | 460 kts | 69° |
| 2026-05-06 10:23 | 49.16795 | 4.46858 | 35845 ft | 461 kts | 69° |
| 2026-05-06 10:23 | 49.19245 | 4.55908 | 35831 ft | 461 kts | 70° |
| 2026-05-06 10:24 | 49.21691 | 4.64967 | 35826 ft | 461 kts | 70° |
| 2026-05-06 10:24 | 49.24135 | 4.74058 | 35819 ft | 461 kts | 70° |
| 2026-05-06 10:25 | 49.26568 | 4.83138 | 35822 ft | 462 kts | 70° |
| 2026-05-06 10:25 | 49.29000 | 4.92250 | 35791 ft | 461 kts | 70° |
| 2026-05-06 10:26 | 49.31422 | 5.01364 | 35813 ft | 462 kts | 70° |
| 2026-05-06 10:26 | 49.33824 | 5.10437 | 35797 ft | 462 kts | 70° |
| 2026-05-06 10:27 | 49.36237 | 5.19588 | 35806 ft | 463 kts | 70° |
| 2026-05-06 10:27 | 49.38647 | 5.28760 | 35790 ft | 463 kts | 70° |
| 2026-05-06 10:28 | 49.41048 | 5.37941 | 35789 ft | 464 kts | 70° |
| 2026-05-06 10:28 | 49.43446 | 5.47145 | 35799 ft | 464 kts | 71° |
| 2026-05-06 10:29 | 49.45816 | 5.56277 | 35795 ft | 456 kts | 71° |
| 2026-05-06 10:29 | 49.48157 | 5.65331 | 35783 ft | 455 kts | 71° |
| 2026-05-06 10:30 | 49.50493 | 5.74393 | 35789 ft | 456 kts | 71° |
| 2026-05-06 10:30 | 49.52654 | 5.83518 | 35784 ft | 456 kts | 73° |
| 2026-05-06 10:31 | 49.54776 | 5.92713 | 35617 ft | 454 kts | 73° |
| 2026-05-06 10:31 | 49.55835 | 5.97308 | 34754 ft | 459 kts | 73° |
| 2026-05-06 10:31 | 49.56915 | 6.01996 | 33846 ft | 466 kts | 73° |
| 2026-05-06 10:32 | 49.57996 | 6.06698 | 33202 ft | 464 kts | 73° |
| 2026-05-06 10:32 | 49.59065 | 6.11358 | 32724 ft | 458 kts | 73° |
| 2026-05-06 10:32 | 49.60118 | 6.15962 | 32247 ft | 453 kts | 73° |
| 2026-05-06 10:32 | 49.61148 | 6.20472 | 31795 ft | 449 kts | 73° |
| 2026-05-06 10:33 | 49.62178 | 6.24995 | 31332 ft | 445 kts | 73° |
| 2026-05-06 10:33 | 49.63200 | 6.29486 | 30877 ft | 442 kts | 73° |
| 2026-05-06 10:33 | 49.64212 | 6.33948 | 30437 ft | 439 kts | 73° |
| 2026-05-06 10:33 | 49.65214 | 6.38372 | 29990 ft | 436 kts | 73° |
| 2026-05-06 10:34 | 49.66207 | 6.42773 | 29482 ft | 432 kts | 73° |
| 2026-05-06 10:34 | 49.67188 | 6.47122 | 28971 ft | 428 kts | 73° |
| 2026-05-06 10:34 | 49.68165 | 6.51468 | 28463 ft | 425 kts | 73° |
| 2026-05-06 10:34 | 49.69129 | 6.55759 | 27972 ft | 421 kts | 73° |
| 2026-05-06 10:35 | 49.70087 | 6.60035 | 27474 ft | 418 kts | 73° |
| 2026-05-06 10:35 | 49.71035 | 6.64274 | 26989 ft | 416 kts | 73° |
| 2026-05-06 10:35 | 49.71979 | 6.68420 | 26544 ft | 414 kts | 71° |
| 2026-05-06 10:35 | 49.72985 | 6.72583 | 26082 ft | 412 kts | 71° |
| 2026-05-06 10:36 | 49.73978 | 6.76731 | 25687 ft | 410 kts | 72° |
| 2026-05-06 10:36 | 49.74959 | 6.80850 | 25363 ft | 405 kts | 72° |
| 2026-05-06 10:36 | 49.75927 | 6.84924 | 25014 ft | 401 kts | 72° |
| 2026-05-06 10:36 | 49.76881 | 6.88949 | 24675 ft | 396 kts | 71° |
| 2026-05-06 10:37 | 49.77821 | 6.92926 | 24354 ft | 392 kts | 72° |
| 2026-05-06 10:37 | 49.78755 | 6.96882 | 24025 ft | 388 kts | 72° |
| 2026-05-06 10:37 | 49.79677 | 7.00795 | 23726 ft | 385 kts | 72° |
| 2026-05-06 10:37 | 49.80578 | 7.04624 | 23399 ft | 382 kts | 72° |
| 2026-05-06 10:38 | 49.81482 | 7.08474 | 23033 ft | 379 kts | 72° |
| 2026-05-06 10:38 | 49.82377 | 7.12291 | 22676 ft | 376 kts | 72° |
| 2026-05-06 10:38 | 49.83267 | 7.16099 | 22303 ft | 375 kts | 72° |
| 2026-05-06 10:38 | 49.84151 | 7.19885 | 21936 ft | 373 kts | 72° |
| 2026-05-06 10:39 | 49.85028 | 7.23648 | 21571 ft | 369 kts | 72° |
| 2026-05-06 10:39 | 49.85896 | 7.27375 | 21229 ft | 366 kts | 72° |
| 2026-05-06 10:39 | 49.86757 | 7.31079 | 20877 ft | 364 kts | 72° |
| 2026-05-06 10:39 | 49.87610 | 7.34760 | 20528 ft | 361 kts | 72° |
| 2026-05-06 10:40 | 49.88456 | 7.38414 | 20188 ft | 359 kts | 72° |
| 2026-05-06 10:40 | 49.89297 | 7.42050 | 19877 ft | 356 kts | 72° |
| 2026-05-06 10:40 | 49.90126 | 7.45641 | 19567 ft | 353 kts | 72° |
| 2026-05-06 10:40 | 49.90943 | 7.49191 | 19265 ft | 351 kts | 72° |
| 2026-05-06 10:41 | 49.91771 | 7.52792 | 18971 ft | 351 kts | 72° |
| 2026-05-06 10:41 | 49.92580 | 7.56313 | 18665 ft | 350 kts | 72° |
| 2026-05-06 10:41 | 49.93401 | 7.59897 | 18372 ft | 347 kts | 72° |
| 2026-05-06 10:41 | 49.94197 | 7.63374 | 18066 ft | 345 kts | 72° |
| 2026-05-06 10:42 | 49.94998 | 7.66877 | 17738 ft | 343 kts | 72° |
| 2026-05-06 10:42 | 49.95790 | 7.70349 | 17398 ft | 340 kts | 72° |
| 2026-05-06 10:42 | 49.96578 | 7.73813 | 17077 ft | 338 kts | 72° |
| 2026-05-06 10:42 | 49.97360 | 7.77249 | 16747 ft | 336 kts | 72° |
| 2026-05-06 10:43 | 49.98134 | 7.80663 | 16429 ft | 334 kts | 72° |
| 2026-05-06 10:43 | 49.98901 | 7.84046 | 16171 ft | 331 kts | 72° |
| 2026-05-06 10:43 | 49.99658 | 7.87391 | 15907 ft | 329 kts | 72° |
| 2026-05-06 10:44 | 50.01164 | 7.94063 | 15395 ft | 324 kts | 72° |
| 2026-05-06 10:44 | 50.01907 | 7.97365 | 15135 ft | 322 kts | 72° |
| 2026-05-06 10:44 | 50.02645 | 8.00645 | 14882 ft | 321 kts | 72° |
| 2026-05-06 10:44 | 50.03378 | 8.03914 | 14638 ft | 320 kts | 72° |
| 2026-05-06 10:45 | 50.04109 | 8.07173 | 14390 ft | 319 kts | 72° |
| 2026-05-06 10:45 | 50.04838 | 8.10430 | 14143 ft | 317 kts | 72° |
| 2026-05-06 10:45 | 50.05559 | 8.13660 | 13898 ft | 316 kts | 72° |
| 2026-05-06 10:45 | 50.06280 | 8.16888 | 13661 ft | 315 kts | 72° |
| 2026-05-06 10:46 | 50.06755 | 8.19020 | 13487 ft | 314 kts | 72° |
| 2026-05-06 10:46 | 50.07468 | 8.22223 | 13230 ft | 313 kts | 72° |
| 2026-05-06 10:46 | 50.08179 | 8.25427 | 12945 ft | 313 kts | 72° |
| 2026-05-06 10:46 | 50.08886 | 8.28615 | 12683 ft | 311 kts | 72° |
| 2026-05-06 10:47 | 50.09592 | 8.31800 | 12401 ft | 310 kts | 72° |
| 2026-05-06 10:47 | 50.10294 | 8.34976 | 12137 ft | 309 kts | 72° |
| 2026-05-06 10:47 | 50.10990 | 8.38128 | 11870 ft | 307 kts | 72° |
| 2026-05-06 10:47 | 50.11681 | 8.41262 | 11615 ft | 305 kts | 72° |
| 2026-05-06 10:48 | 50.12371 | 8.44394 | 11350 ft | 304 kts | 72° |
| 2026-05-06 10:48 | 50.13055 | 8.47509 | 11077 ft | 303 kts | 72° |
| 2026-05-06 10:48 | 50.13736 | 8.50611 | 10821 ft | 302 kts | 72° |
| 2026-05-06 10:48 | 50.14412 | 8.53695 | 10570 ft | 301 kts | 72° |
| 2026-05-06 10:49 | 50.15088 | 8.56783 | 10314 ft | 299 kts | 73° |
| 2026-05-06 10:49 | 50.15760 | 8.59857 | 9975 ft | 300 kts | 72° |
| 2026-05-06 10:49 | 50.16425 | 8.62905 | 9563 ft | 294 kts | 72° |
| 2026-05-06 10:49 | 50.17076 | 8.65889 | 9174 ft | 287 kts | 72° |
| 2026-05-06 10:50 | 50.17711 | 8.68814 | 8779 ft | 282 kts | 73° |
| 2026-05-06 10:50 | 50.18337 | 8.71693 | 8375 ft | 278 kts | 72° |
| 2026-05-06 10:50 | 50.18953 | 8.74531 | 7993 ft | 274 kts | 72° |
| 2026-05-06 10:50 | 50.19561 | 8.77338 | 7617 ft | 271 kts | 72° |
| 2026-05-06 10:51 | 50.20161 | 8.80111 | 7204 ft | 268 kts | 72° |
| 2026-05-06 10:51 | 50.20753 | 8.82850 | 6821 ft | 264 kts | 72° |
| 2026-05-06 10:51 | 50.21332 | 8.85534 | 6434 ft | 259 kts | 72° |
| 2026-05-06 10:51 | 50.21895 | 8.88148 | 6061 ft | 254 kts | 72° |
| 2026-05-06 10:52 | 50.22454 | 8.90745 | 5653 ft | 250 kts | 72° |
| 2026-05-06 10:52 | 50.22906 | 8.93333 | 5242 ft | 248 kts | 88° |
| 2026-05-06 10:52 | 50.22591 | 8.95898 | 5073 ft | 236 kts | 118° |
| 2026-05-06 10:52 | 50.21592 | 8.97865 | 4751 ft | 233 kts | 144° |
| 2026-05-06 10:53 | 50.20180 | 8.99060 | 4465 ft | 231 kts | 158° |
| 2026-05-06 10:53 | 50.18702 | 9.00020 | 4181 ft | 229 kts | 159° |
| 2026-05-06 10:53 | 50.17217 | 9.00911 | 4035 ft | 227 kts | 166° |
| 2026-05-06 10:53 | 50.15664 | 9.00978 | 3983 ft | 225 kts | 195° |
| 2026-05-06 10:54 | 50.14309 | 8.99827 | 4104 ft | 227 kts | 222° |
| 2026-05-06 10:54 | 50.13390 | 8.97835 | 4052 ft | 228 kts | 244° |
| 2026-05-06 10:54 | 50.12791 | 8.95564 | 3949 ft | 222 kts | 248° |
| 2026-05-06 10:54 | 50.12268 | 8.93416 | 3964 ft | 209 kts | 248° |
| 2026-05-06 10:55 | 50.11751 | 8.91275 | 3984 ft | 208 kts | 248° |
| 2026-05-06 10:55 | 50.11255 | 8.89194 | 3998 ft | 208 kts | 249° |
| 2026-05-06 10:55 | 50.10753 | 8.87083 | 3984 ft | 208 kts | 249° |
| 2026-05-06 10:55 | 50.10254 | 8.84977 | 3960 ft | 207 kts | 249° |
| 2026-05-06 10:56 | 50.09764 | 8.82859 | 3682 ft | 205 kts | 249° |
| 2026-05-06 10:56 | 50.09283 | 8.80814 | 3365 ft | 197 kts | 249° |
| 2026-05-06 10:56 | 50.08815 | 8.78841 | 3071 ft | 191 kts | 249° |
| 2026-05-06 10:56 | 50.08362 | 8.76937 | 2792 ft | 184 kts | 249° |
| 2026-05-06 10:57 | 50.07933 | 8.75133 | 2538 ft | 168 kts | 249° |
| 2026-05-06 10:57 | 50.07543 | 8.73494 | 2322 ft | 159 kts | 249° |
| 2026-05-06 10:57 | 50.07159 | 8.71884 | 2145 ft | 159 kts | 249° |
| 2026-05-06 10:57 | 50.06777 | 8.70278 | 1911 ft | 158 kts | 249° |
| 2026-05-06 10:58 | 50.06394 | 8.68675 | 1689 ft | 157 kts | 249° |
| 2026-05-06 10:58 | 50.06020 | 8.67078 | 1470 ft | 157 kts | 249° |
| 2026-05-06 10:58 | 50.05644 | 8.65485 | 1240 ft | 156 kts | 248° |
| 2026-05-06 10:58 | 50.05268 | 8.63918 | 1112 ft | 154 kts | 249° |
| 2026-05-06 10:59 | 50.04896 | 8.62379 | 904 ft | 150 kts | 248° |
| 2026-05-06 10:59 | 50.04539 | 8.60890 | 697 ft | 148 kts | 248° |
| 2026-05-06 10:59 | 50.04183 | 8.59407 | 512 ft | 145 kts | 248° |
| 2026-05-06 10:59 | 50.03839 | 8.57954 | 370 ft | 137 kts | 248° |
| 2026-05-06 11:00 | 50.03548 | 8.56755 | 361 ft | 89 kts | 249° |
| 2026-05-06 11:00 | 50.03397 | 8.56116 | 359 ft | 53 kts | 250° |
| 2026-05-06 11:00 | 50.03307 | 8.55669 | 345 ft | 31 kts | 262° |
| 2026-05-06 11:00 | 50.03324 | 8.55405 | 348 ft | 22 kts | 279° |
| 2026-05-06 11:01 | 50.03345 | 8.55220 | 345 ft | 10 kts | 282° |
| 2026-05-06 11:01 | 50.03396 | 8.55164 | 351 ft | 9 kts | 2° |
| 2026-05-06 11:01 | 50.03434 | 8.55227 | 352 ft | 9 kts | 70° |
| 2026-05-06 11:01 | 50.03456 | 8.55324 | 352 ft | 10 kts | 70° |
| 2026-05-06 11:02 | 50.03482 | 8.55438 | 351 ft | 12 kts | 69° |
| 2026-05-06 11:02 | 50.03513 | 8.55567 | 351 ft | 14 kts | 70° |
| 2026-05-06 11:02 | 50.03548 | 8.55711 | 351 ft | 15 kts | 69° |
| 2026-05-06 11:02 | 50.03586 | 8.55862 | 356 ft | 15 kts | 68° |
| 2026-05-06 11:03 | 50.03625 | 8.56019 | 359 ft | 16 kts | 69° |
| 2026-05-06 11:03 | 50.03664 | 8.56180 | 355 ft | 17 kts | 69° |
| 2026-05-06 11:03 | 50.03707 | 8.56360 | 355 ft | 19 kts | 70° |
| 2026-05-06 11:03 | 50.03753 | 8.56558 | 361 ft | 20 kts | 69° |
| 2026-05-06 11:04 | 50.03803 | 8.56766 | 358 ft | 21 kts | 69° |
| 2026-05-06 11:04 | 50.03853 | 8.56975 | 363 ft | 21 kts | 70° |
| 2026-05-06 11:04 | 50.03901 | 8.57183 | 365 ft | 20 kts | 70° |
| 2026-05-06 11:04 | 50.03943 | 8.57361 | 367 ft | 17 kts | 70° |
| 2026-05-06 11:05 | 50.03984 | 8.57535 | 371 ft | 18 kts | 70° |
| 2026-05-06 11:05 | 50.04028 | 8.57721 | 373 ft | 19 kts | 70° |
| 2026-05-06 11:05 | 50.04075 | 8.57916 | 371 ft | 18 kts | 69° |
| 2026-05-06 11:05 | 50.04121 | 8.58110 | 374 ft | 19 kts | 70° |
| 2026-05-06 11:06 | 50.04167 | 8.58304 | 371 ft | 19 kts | 69° |
| 2026-05-06 11:06 | 50.04214 | 8.58498 | 371 ft | 18 kts | 69° |
| 2026-05-06 11:06 | 50.04261 | 8.58691 | 372 ft | 20 kts | 69° |
| 2026-05-06 11:06 | 50.04308 | 8.58885 | 377 ft | 19 kts | 69° |
| 2026-05-06 11:07 | 50.04355 | 8.59078 | 379 ft | 19 kts | 69° |
| 2026-05-06 11:07 | 50.04400 | 8.59266 | 378 ft | 12 kts | 69° |
| 2026-05-06 11:07 | 50.04431 | 8.59399 | 378 ft | 14 kts | 70° |
| 2026-05-06 11:07 | 50.04475 | 8.59472 | 377 ft | 10 kts | 7° |
| 2026-05-06 11:08 | 50.04550 | 8.59468 | 376 ft | 10 kts | 358° |
| 2026-05-06 11:08 | 50.04629 | 8.59463 | 375 ft | 13 kts | 355° |
| 2026-05-06 11:08 | 50.04700 | 8.59442 | 375 ft | 10 kts | 346° |
| 2026-05-06 11:08 | 50.04737 | 8.59426 | 375 ft | 4 kts | 338° |
| 2026-05-06 11:09 | 50.04766 | 8.59407 | 375 ft | 4 kts | 337° |
| 2026-05-06 11:09 | 50.04788 | 8.59392 | 374 ft | 3 kts | 337° |
| 2026-05-06 11:09 | 50.04821 | 8.59366 | 373 ft | 8 kts | 323° |
| 2026-05-06 11:09 | 50.04844 | 8.59278 | 371 ft | 8 kts | 269° |
| 2026-05-06 11:10 | 50.04854 | 8.59225 | 372 ft | 4 kts | 319° |
| 2026-05-06 11:10 | 50.04881 | 8.59208 | 371 ft | 5 kts | 339° |
| 2026-05-06 11:10 | 50.04909 | 8.59192 | 370 ft | 2 kts | 340° |
| 2026-05-06 11:10 | 50.04916 | 8.59188 | 368 ft | 0 kts | 340° |